createdAt,value
2022-09-03T00:53:30.907Z,45.55
2022-09-03T00:56:12.795Z,45.69
2022-09-03T00:58:50.874Z,45.73
2022-09-03T01:01:28.598Z,45.76
2022-09-03T01:04:07.774Z,45.67
2022-09-03T01:06:54.442Z,45.59
2022-09-03T01:09:39.443Z,45.89
2022-09-03T01:12:33.364Z,45.81
2022-09-03T01:15:08.295Z,46.26
2022-09-03T01:17:45.090Z,46.07
2022-09-03T01:20:24.512Z,45.91
2022-09-03T01:23:15.423Z,46.36
2022-09-03T01:25:51.199Z,45.97
2022-09-03T01:28:32.259Z,46.41
2022-09-03T01:31:11.975Z,46.37
2022-09-03T01:33:42.333Z,46.20
2022-09-03T01:36:15.814Z,46.59
2022-09-03T01:38:48.402Z,46.46
2022-09-03T01:41:41.662Z,46.94
2022-09-03T01:44:16.835Z,46.58
2022-09-03T01:46:46.203Z,46.54
2022-09-03T01:49:22.783Z,46.56
2022-09-03T01:51:58.230Z,46.79
2022-09-03T01:54:52.273Z,46.95
2022-09-03T01:57:37.422Z,47.01
2022-09-03T02:00:11.638Z,46.85
2022-09-03T02:02:41.066Z,47.24
2022-09-03T02:05:12.352Z,47.42
2022-09-03T02:07:41.903Z,47.12
2022-09-03T02:10:12.920Z,46.63
2022-09-03T02:12:42.172Z,47.20
2022-09-03T02:15:14.989Z,46.94
2022-09-03T02:17:44.423Z,47.08
2022-09-03T02:20:13.970Z,46.65
2022-09-03T02:22:41.751Z,47.08
2022-09-03T02:25:10.987Z,47.11
2022-09-03T02:27:39.151Z,47.12
2022-09-03T02:30:08.108Z,47.12
2022-09-03T02:32:37.044Z,47.10
2022-09-03T02:35:04.832Z,47.23
2022-09-03T02:37:32.377Z,46.91
2022-09-03T02:40:00.065Z,47.61
2022-09-03T02:42:27.683Z,47.31
2022-09-03T02:44:58.735Z,47.36
2022-09-03T02:47:30.857Z,47.61
2022-09-03T02:49:59.744Z,47.45
2022-09-03T02:52:27.324Z,47.67
2022-09-03T02:54:54.933Z,47.30
2022-09-03T02:57:27.506Z,46.97
2022-09-03T02:59:55.491Z,47.54
2022-09-03T03:02:23.078Z,47.76
2022-09-03T03:04:50.818Z,47.40
2022-09-03T03:07:19.705Z,47.21
2022-09-03T03:09:47.182Z,47.64
2022-09-03T03:12:17.220Z,47.87
2022-09-03T03:14:44.715Z,48.10
2022-09-03T03:17:12.242Z,47.91
2022-09-03T03:19:39.724Z,47.75
2022-09-03T03:22:07.291Z,48.12
2022-09-03T03:24:36.826Z,47.89
2022-09-03T03:27:07.191Z,47.87
2022-09-03T03:29:35.054Z,48.08
2022-09-03T03:32:03.100Z,48.01
2022-09-03T03:34:30.553Z,47.97
2022-09-03T03:36:58.092Z,47.84
2022-09-03T03:39:25.645Z,47.89
2022-09-03T03:41:54.470Z,48.02
2022-09-03T03:44:21.969Z,48.30
2022-09-03T03:46:49.585Z,48.16
2022-09-03T03:49:17.043Z,47.98
2022-09-03T03:51:44.575Z,48.17
2022-09-03T03:54:12.036Z,48.43
2022-09-03T03:56:45.064Z,47.93
2022-09-03T03:59:24.177Z,48.78
2022-09-03T04:01:51.770Z,48.10
2022-09-03T04:04:19.298Z,48.12
2022-09-03T04:06:46.791Z,48.32
2022-09-03T04:09:14.287Z,48.52
2022-09-03T04:11:41.783Z,48.24
2022-09-03T04:14:09.285Z,48.63
2022-09-03T04:16:38.179Z,48.63
2022-09-03T04:19:05.664Z,49.02
2022-09-03T04:21:33.168Z,48.90
2022-09-03T04:24:00.719Z,48.89
2022-09-03T04:26:31.837Z,48.68
2022-09-03T04:29:00.983Z,48.80
2022-09-03T04:31:29.517Z,48.66
2022-09-03T04:33:59.548Z,48.41
2022-09-03T04:36:28.756Z,48.86
2022-09-03T04:38:58.965Z,48.65
2022-09-03T04:41:27.756Z,48.65
2022-09-03T04:43:56.837Z,48.68
2022-09-03T04:46:26.338Z,48.66
2022-09-03T04:48:56.965Z,48.78
2022-09-03T04:51:27.836Z,49.04
2022-09-03T04:53:57.572Z,48.97
2022-09-03T04:56:26.500Z,48.71
2022-09-03T04:58:56.133Z,49.12
2022-09-03T05:01:25.058Z,49.19
2022-09-03T05:03:52.732Z,49.42
2022-09-03T05:06:20.618Z,49.46
2022-09-03T05:08:50.306Z,49.45
2022-09-03T05:11:18.632Z,49.27
2022-09-03T05:13:48.845Z,49.21
2022-09-03T05:16:16.758Z,49.77
2022-09-03T05:18:45.050Z,49.89
2022-09-03T05:21:13.437Z,49.51
2022-09-03T05:23:42.626Z,49.94
2022-09-03T05:26:14.415Z,50.30
2022-09-03T05:28:43.090Z,49.63
2022-09-03T05:31:12.242Z,49.51
2022-09-03T05:33:42.087Z,50.12
2022-09-03T05:36:11.372Z,49.95
2022-09-03T05:38:39.071Z,49.52
2022-09-03T05:41:08.758Z,50.17
2022-09-03T05:43:37.931Z,50.03
2022-09-03T05:46:07.009Z,49.47
2022-09-03T05:48:36.151Z,49.52
2022-09-03T05:51:04.862Z,49.36
2022-09-03T05:53:34.666Z,49.47
2022-09-03T05:56:03.472Z,49.99
2022-09-03T05:58:32.130Z,50.02
2022-09-03T06:01:00.997Z,49.49
2022-09-03T06:03:28.639Z,50.05
2022-09-03T06:05:56.355Z,50.61
2022-09-03T06:08:23.843Z,51.39
2022-09-03T06:10:51.659Z,50.88
2022-09-03T06:13:19.171Z,51.69
2022-09-03T06:15:46.699Z,51.86
2022-09-03T06:18:15.543Z,50.64
2022-09-03T06:20:43.028Z,51.17
2022-09-03T06:23:30.105Z,51.22
2022-09-03T06:36:31.846Z,55.46
2022-09-03T06:53:07.824Z,56.25
2022-09-03T06:56:21.729Z,53.51
2022-09-03T06:59:12.452Z,55.21
2022-09-03T07:02:21.137Z,55.78
2022-09-03T07:05:01.772Z,55.54
2022-09-03T07:08:36.677Z,57.13
2022-09-03T07:15:32.396Z,57.90
2022-09-03T07:18:14.622Z,57.77
2022-09-03T07:21:39.495Z,58.78
2022-09-03T07:25:07.612Z,57.36
2022-09-03T07:28:05.325Z,55.89
2022-09-03T07:30:37.222Z,54.79
2022-09-03T07:33:33.660Z,57.25
2022-09-03T07:36:39.624Z,56.25
2022-09-03T07:39:25.043Z,56.46
2022-09-03T07:42:17.363Z,57.45
2022-09-03T07:44:46.265Z,57.24
2022-09-03T07:47:14.973Z,56.52
2022-09-03T07:49:43.653Z,57.14
2022-09-03T07:52:16.335Z,56.30
2022-09-03T07:54:45.854Z,56.90
2022-09-03T07:57:13.328Z,57.05
2022-09-03T07:59:40.894Z,58.42
2022-09-03T08:02:10.173Z,59.35
2022-09-03T08:04:38.536Z,61.80
2022-09-03T08:07:06.077Z,62.83
2022-09-03T08:09:33.949Z,62.44
2022-09-03T08:12:01.408Z,64.58
2022-09-03T08:14:30.329Z,66.48
2022-09-03T08:16:59.931Z,67.06
2022-09-03T08:19:28.822Z,67.27
2022-09-03T08:21:56.342Z,66.57
2022-09-03T08:24:26.215Z,64.78
2022-09-03T08:26:53.694Z,63.39
2022-09-03T08:29:21.973Z,64.81
2022-09-03T08:31:49.873Z,64.08
2022-09-03T08:34:18.111Z,65.32
2022-09-03T08:36:47.956Z,62.32
2022-09-03T08:39:15.484Z,65.87
2022-09-03T08:42:08.308Z,66.36
2022-09-03T08:44:41.996Z,68.86
2022-09-03T08:47:12.488Z,68.80
2022-09-03T08:49:45.728Z,67.90
2022-09-03T08:52:23.007Z,69.58
2022-09-03T08:54:51.931Z,67.11
2022-09-03T08:57:20.759Z,64.53
2022-09-03T08:59:48.731Z,65.96
2022-09-03T09:02:28.049Z,63.97
2022-09-03T09:05:01.145Z,61.80
2022-09-03T09:07:33.777Z,63.24
2022-09-03T09:10:05.067Z,63.88
2022-09-03T09:12:45.706Z,63.03
2022-09-03T09:15:20.938Z,63.45
2022-09-03T09:17:55.017Z,64.54
2022-09-03T09:20:28.200Z,61.66
2022-09-03T09:22:59.491Z,62.25
2022-09-03T09:25:27.250Z,63.87
2022-09-03T09:27:59.874Z,65.52
2022-09-03T09:30:27.850Z,65.50
2022-09-03T09:32:55.958Z,65.53
2022-09-03T09:35:24.007Z,64.23
2022-09-03T09:37:52.615Z,64.95
2022-09-03T09:40:33.105Z,64.75
2022-09-03T09:43:07.888Z,64.56
2022-09-03T09:45:35.550Z,64.86
2022-09-03T09:48:04.094Z,65.01
2022-09-03T09:50:31.657Z,66.11
2022-09-03T09:53:05.297Z,62.04
2022-09-03T09:55:34.771Z,64.48
2022-09-03T09:58:14.299Z,64.75
2022-09-03T10:00:42.808Z,64.06
2022-09-03T10:03:13.545Z,62.41
2022-09-03T10:05:41.524Z,62.16
2022-09-03T10:08:21.993Z,62.21
2022-09-03T10:10:52.155Z,62.77
2022-09-03T10:13:21.325Z,59.37
2022-09-03T10:15:52.039Z,60.04
2022-09-03T10:18:28.629Z,59.51
2022-09-03T10:21:03.922Z,60.72
2022-09-03T10:23:34.636Z,59.21
2022-09-03T10:26:07.707Z,60.27
2022-09-03T10:28:41.164Z,59.32
2022-09-03T10:31:44.287Z,58.27
2022-09-03T10:34:18.577Z,59.89
2022-09-03T10:36:52.931Z,59.36
2022-09-03T10:39:23.985Z,58.62
2022-09-03T10:42:06.737Z,58.23
2022-09-03T10:44:49.345Z,56.43
2022-09-03T10:47:28.136Z,56.41
2022-09-03T10:50:01.622Z,54.99
2022-09-03T10:52:33.891Z,57.85
2022-09-03T10:55:20.508Z,56.14
2022-09-03T10:57:55.930Z,54.34
2022-09-03T11:00:23.796Z,54.12
2022-09-03T11:03:22.464Z,53.80
2022-09-03T11:05:58.146Z,55.80
2022-09-03T11:08:29.305Z,54.47
2022-09-03T11:10:58.675Z,53.67
2022-09-03T11:13:31.004Z,53.72
2022-09-03T11:16:01.490Z,53.55
2022-09-03T11:18:33.812Z,53.91
2022-09-03T11:21:07.676Z,52.85
2022-09-03T11:23:42.526Z,53.18
2022-09-03T11:26:14.645Z,53.31
2022-09-03T11:28:49.444Z,53.57
2022-09-03T11:31:23.861Z,53.40
2022-09-03T11:33:54.706Z,52.74
2022-09-03T11:36:30.795Z,53.98
2022-09-03T11:38:59.073Z,54.41
2022-09-03T11:41:28.169Z,52.51
2022-09-03T11:44:01.198Z,53.46
2022-09-03T11:46:32.040Z,52.39
2022-09-03T11:49:12.839Z,52.89
2022-09-03T11:51:44.973Z,51.64
2022-09-03T11:54:26.616Z,51.53
2022-09-03T11:57:10.322Z,52.52
2022-09-03T11:59:39.627Z,52.48
2022-09-03T12:02:17.826Z,52.28
2022-09-03T12:04:48.998Z,52.28
2022-09-03T12:07:27.948Z,53.45
2022-09-03T12:10:13.719Z,53.05
2022-09-03T12:12:52.168Z,53.35
2022-09-03T12:15:31.964Z,53.87
2022-09-03T12:18:22.859Z,53.84
2022-09-03T12:21:02.243Z,54.31
2022-09-03T12:23:31.643Z,54.53
2022-09-03T12:26:01.180Z,54.72
2022-09-03T12:28:31.030Z,55.03
2022-09-03T12:31:21.455Z,54.27
2022-09-03T12:33:51.404Z,54.58
2022-09-03T12:36:19.150Z,54.49
2022-09-03T12:39:10.489Z,54.35
2022-09-03T12:41:35.756Z,54.16
2022-09-03T12:44:04.348Z,53.55
2022-09-03T12:46:34.912Z,55.39
2022-09-03T12:51:57.433Z,51.84
2022-09-03T12:54:27.030Z,51.56
2022-09-03T12:56:57.760Z,51.63
2022-09-03T12:59:28.371Z,52.26
2022-09-03T13:02:01.048Z,53.83
2022-09-03T13:04:30.701Z,52.36
2022-09-03T13:07:03.621Z,51.70
2022-09-03T13:09:33.360Z,51.24
2022-09-03T13:12:04.784Z,51.44
2022-09-03T13:14:43.771Z,52.00
2022-09-03T13:17:21.288Z,51.53
2022-09-03T13:20:02.477Z,52.81
2022-09-03T13:22:34.954Z,52.21
2022-09-03T13:25:14.673Z,53.18
2022-09-03T13:27:47.117Z,52.27
2022-09-03T13:30:17.989Z,52.62
2022-09-03T13:32:54.496Z,52.68
2022-09-03T13:35:29.446Z,52.73
2022-09-03T13:38:01.909Z,53.03
2022-09-03T13:40:36.633Z,52.01
2022-09-03T13:43:07.501Z,51.37
2022-09-03T13:45:40.023Z,50.53
2022-09-03T13:48:33.668Z,50.30
2022-09-03T13:51:07.853Z,50.27
2022-09-03T13:53:46.089Z,49.94
2022-09-03T13:56:36.274Z,49.26
2022-09-03T13:59:08.633Z,51.62
2022-09-03T14:01:47.108Z,50.01
2022-09-03T14:04:22.943Z,51.27
2022-09-03T14:06:55.884Z,49.88
2022-09-03T14:09:35.175Z,48.75
2022-09-03T14:12:14.563Z,49.85
2022-09-03T14:14:50.351Z,50.46
2022-09-03T14:17:24.721Z,51.43
2022-09-03T14:20:01.821Z,50.93
2022-09-03T14:22:35.923Z,50.30
2022-09-03T14:25:10.984Z,51.46
2022-09-03T14:27:39.232Z,50.82
2022-09-03T14:30:09.861Z,50.71
2022-09-03T14:32:47.456Z,52.14
2022-09-03T14:35:24.347Z,51.62
2022-09-03T14:38:31.055Z,51.17
2022-09-03T14:41:07.429Z,50.69
2022-09-03T14:44:18.192Z,51.76
2022-09-03T14:46:59.902Z,50.18
2022-09-03T14:50:09.894Z,50.22
2022-09-03T14:52:53.049Z,50.82
2022-09-03T14:55:32.649Z,51.40
2022-09-03T14:58:33.753Z,49.69
2022-09-03T15:01:06.462Z,50.67
2022-09-03T15:04:10.636Z,49.23
2022-09-03T15:07:33.966Z,49.37
2022-09-03T15:09:48.872Z,50.06
2022-09-03T15:12:26.765Z,50.23
2022-09-03T15:15:04.408Z,50.47
2022-09-03T15:17:59.844Z,51.25
2022-09-03T15:20:35.671Z,50.98
2022-09-03T15:23:24.535Z,49.35
2022-09-03T15:26:42.803Z,49.19
2022-09-03T15:29:37.077Z,49.51
2022-09-03T15:32:13.922Z,49.91
2022-09-03T15:34:56.562Z,50.76
2022-09-03T15:37:27.073Z,50.27
2022-09-03T15:40:03.193Z,50.51
2022-09-03T15:42:32.181Z,51.53
2022-09-03T15:45:05.652Z,51.86
2022-09-03T15:47:51.403Z,52.75
2022-09-03T15:50:30.670Z,52.59
2022-09-03T15:53:04.578Z,52.58
2022-09-03T15:55:38.796Z,53.60
2022-09-03T15:58:14.438Z,52.93
2022-09-03T16:00:57.269Z,52.27
2022-09-03T16:03:39.319Z,53.07
2022-09-03T16:06:18.570Z,52.62
2022-09-03T16:08:54.539Z,53.32
2022-09-03T16:11:32.574Z,54.01
2022-09-03T16:14:07.964Z,54.14
2022-09-03T16:16:51.099Z,54.01
2022-09-03T16:19:32.138Z,53.78
2022-09-03T16:22:02.525Z,54.05
2022-09-03T16:24:35.712Z,54.12
2022-09-03T16:27:09.689Z,54.32
2022-09-03T16:29:41.858Z,54.59
2022-09-03T16:33:01.146Z,54.58
2022-09-03T16:35:39.452Z,55.09
2022-09-03T16:38:22.741Z,55.45
2022-09-03T16:40:54.569Z,55.36
2022-09-03T16:43:40.761Z,55.48
2022-09-03T16:46:21.999Z,55.69
2022-09-03T16:48:57.850Z,55.80
2022-09-03T16:51:28.976Z,55.72
2022-09-03T16:54:12.546Z,56.00
2022-09-03T16:56:48.364Z,56.21
2022-09-03T16:59:30.396Z,56.46
2022-09-03T17:02:30.144Z,57.01
2022-09-03T17:05:12.497Z,55.93
2022-09-03T17:07:58.070Z,56.15
2022-09-03T17:10:33.465Z,57.05
2022-09-03T17:13:12.247Z,57.21
2022-09-03T17:15:42.640Z,56.99
2022-09-03T17:18:31.658Z,57.54
2022-09-03T17:21:09.949Z,58.24
2022-09-03T17:23:52.934Z,58.52
2022-09-03T17:26:26.887Z,59.43
2022-09-03T17:29:06.418Z,59.31
2022-09-03T17:31:42.543Z,59.45
2022-09-03T17:34:16.269Z,59.51
2022-09-03T17:36:56.602Z,59.01
2022-09-03T17:39:54.887Z,58.84
2022-09-03T17:42:30.278Z,60.17
2022-09-03T17:45:12.846Z,60.57
2022-09-03T17:48:11.163Z,60.83
2022-09-03T17:50:49.645Z,61.46
2022-09-03T17:53:41.444Z,61.06
2022-09-03T17:56:27.845Z,60.37
2022-09-03T18:02:31.877Z,61.27
2022-09-03T18:05:27.118Z,60.81
2022-09-03T18:08:01.268Z,62.05
2022-09-03T18:10:33.854Z,62.73
2022-09-03T18:13:08.385Z,62.92
2022-09-03T18:15:38.876Z,64.07
2022-09-03T18:18:09.885Z,64.99
2022-09-03T18:21:21.473Z,65.05
2022-09-03T18:24:13.035Z,65.37
2022-09-03T18:27:02.817Z,67.11
2022-09-03T18:29:55.795Z,67.34
2022-09-03T18:32:49.827Z,66.88
2022-09-03T18:35:37.629Z,66.37
2022-09-03T18:38:23.169Z,66.49
2022-09-03T18:41:14.311Z,65.78
2022-09-03T18:44:07.130Z,66.45
2022-09-03T18:50:13.980Z,66.97
2022-09-03T18:53:03.300Z,66.15
2022-09-03T18:55:57.235Z,65.56
2022-09-03T18:58:52.118Z,67.18
2022-09-03T19:01:47.426Z,68.27
2022-09-03T19:04:39.807Z,68.87
2022-09-03T19:07:28.041Z,69.84
2022-09-03T19:10:23.428Z,69.94
2022-09-03T19:13:31.162Z,70.54
2022-09-03T19:16:22.613Z,70.02
2022-09-03T19:19:26.018Z,70.01
2022-09-03T19:22:14.828Z,69.23
2022-09-03T19:25:05.061Z,69.54
2022-09-03T19:27:59.835Z,71.02
2022-09-03T19:30:50.390Z,71.26
2022-09-03T19:33:45.273Z,72.04
2022-09-03T19:36:35.483Z,72.08
2022-09-03T19:39:30.568Z,72.51
2022-09-03T19:42:21.071Z,70.37
2022-09-03T19:45:18.240Z,69.22
2022-09-03T19:48:10.092Z,69.71
2022-09-03T19:51:11.845Z,68.85
2022-09-03T19:53:57.266Z,68.62
2022-09-03T19:56:46.198Z,70.13
2022-09-03T19:59:42.639Z,72.09
2022-09-03T20:02:28.615Z,69.68
2022-09-03T20:05:18.421Z,70.24
2022-09-03T20:08:07.888Z,69.43
2022-09-03T20:10:36.488Z,70.95
2022-09-03T20:13:09.638Z,71.12
2022-09-03T20:15:49.360Z,71.53
2022-09-03T20:18:25.701Z,71.42
2022-09-03T20:21:11.587Z,71.26
2022-09-03T20:23:47.173Z,71.73
2022-09-03T20:26:24.437Z,71.21
2022-09-03T20:29:28.243Z,71.23
2022-09-03T20:32:02.561Z,71.03
2022-09-03T20:34:45.115Z,70.60
2022-09-03T20:37:27.561Z,71.14
2022-09-03T20:40:16.147Z,71.76
2022-09-03T20:43:03.372Z,72.33
2022-09-03T20:45:45.104Z,72.39
2022-09-03T20:48:23.510Z,74.81
2022-09-03T20:51:00.908Z,75.48
2022-09-03T20:53:56.152Z,76.66
2022-09-03T20:56:32.477Z,76.35
2022-09-03T20:59:06.336Z,75.00
2022-09-03T21:01:41.431Z,73.41
2022-09-03T21:04:22.583Z,74.19
2022-09-03T21:07:03.389Z,74.83
2022-09-03T21:09:38.766Z,74.53
2022-09-03T21:12:21.670Z,75.01
2022-09-03T21:14:53.440Z,74.27
2022-09-03T21:17:43.280Z,74.04
2022-09-03T21:20:23.634Z,73.86
2022-09-03T21:23:13.093Z,73.79
2022-09-03T21:25:49.025Z,73.99
2022-09-03T21:28:28.541Z,74.68
2022-09-03T21:31:09.131Z,75.14
2022-09-03T21:33:42.545Z,73.74
2022-09-03T21:36:18.897Z,73.83
2022-09-03T21:38:59.690Z,74.10
2022-09-03T21:41:32.441Z,74.77
2022-09-03T21:44:10.606Z,74.16
2022-09-03T21:46:48.903Z,74.37
2022-09-03T21:49:22.928Z,75.62
2022-09-03T21:51:57.907Z,75.40
2022-09-03T21:54:33.654Z,76.37
2022-09-03T21:57:22.501Z,76.26
2022-09-03T22:00:26.187Z,76.07
2022-09-03T22:02:59.742Z,76.34
2022-09-03T22:05:34.369Z,77.51
2022-09-03T22:08:18.180Z,76.06
2022-09-03T22:10:58.666Z,76.00
2022-09-03T22:13:31.315Z,76.47
2022-09-03T22:16:08.697Z,76.17
2022-09-03T22:18:40.662Z,76.66
2022-09-03T22:21:18.759Z,76.61
2022-09-03T22:24:08.250Z,76.25
2022-09-03T22:26:48.642Z,75.86
2022-09-03T22:29:25.232Z,75.59
2022-09-03T22:32:01.874Z,75.60
2022-09-03T22:35:07.729Z,74.62
2022-09-03T22:37:47.312Z,76.25
2022-09-03T22:40:34.891Z,77.21
2022-09-03T22:43:23.619Z,77.38
2022-09-03T22:46:09.564Z,77.28
2022-09-03T22:49:07.460Z,77.01
2022-09-03T22:51:48.062Z,78.00
2022-09-03T22:54:26.079Z,76.78
2022-09-03T22:56:54.624Z,76.55
2022-09-03T22:59:27.643Z,76.85
2022-09-03T23:02:03.165Z,77.57
2022-09-03T23:04:44.987Z,79.09
2022-09-03T23:10:12.141Z,80.93
2022-09-03T23:12:46.499Z,79.09
2022-09-03T23:15:21.424Z,79.58
2022-09-03T23:17:58.998Z,80.83
2022-09-03T23:20:31.175Z,80.47
2022-09-03T23:23:06.392Z,79.72
2022-09-03T23:25:41.551Z,79.31
2022-09-03T23:28:14.919Z,79.00
2022-09-03T23:30:42.811Z,79.28
2022-09-03T23:33:17.233Z,78.33
2022-09-03T23:36:08.566Z,77.61
2022-09-03T23:39:02.833Z,77.89
2022-09-03T23:41:47.290Z,79.22
2022-09-03T23:44:33.869Z,78.60
2022-09-03T23:47:12.529Z,77.71
2022-09-03T23:49:51.251Z,77.96
2022-09-03T23:52:40.314Z,79.50
2022-09-03T23:55:17.203Z,80.54
2022-09-03T23:57:58.161Z,79.56
